Saint Anne, Missouri
Current Conditions -  °F | °C
As of 12:51 AM on Thursday 23 Oct 2014 (Local Time) from KSTL Reporting Station
Scattered Clouds Scattered Clouds  
Wind Chill: 45°   Ceiling: Unl
Heat Index: 47°   Visibility: 10mi
Dew Point: 40°   Wind: 5mph
Humidity: 77%   Direction: 110°ESE
Pressure: 30.22"   Gusts: NA
Location:  38.7263°N, 90.3885°W
Report Text: KSTL 230551Z 11004KT 10SM SCT250 08/04 A3022 RMK AO2 SLP234 T00830044 10144 20083 401720061 58006
Loading
Personal Weather Stations






























Interactive Weather Map New forecast layout! Learn more

10-Day Weather Forecast

Advertisements
Track Severe Weather on mobile